METAR Data
IDs: Format: Raw Decoded Include TAF

Data at: 2256 UTC 26 Feb 2020

KMKT 262156Z AUTO 33006KT 10SM BKN050 M05/M10 A3025 RMK AO2 SLP264 T10501100 FZRANO